Pagina principale
METAR-TAF:

METAR-TAF

Aeroporti :

Payerne, Svizzera

latitudine: 46-49N, longitudine: 006-57E, altezza: 490 m

Osservazione

Il bollettino è stato emesso 21 minuti fa, alle 22:20 UTC
Vento 3 kt da nord-est, variando fra nord e est/nord-est
Temperature 13°C
Umidità 94%
Pressione 1027 hPa
Visibilità 10 km o più
Nuvoloso ad un'altezza di 7800 ft

METAR: LSMP 202220Z AUTO 04003KT 010V070 9999NDV BKN078 13/12 Q1027 RMK

Ora: 00:41 (22:41 UTC)


TAF: mancante

Osservazioni e previsioni meteorologiche di più di 4000 aeroporti (messaggi METAR e TAF).

Le stazioni disponibili sono rappresentate dai dischi gialli e rossi sulla carta.

Puntare il mouse per vedere il nome della stazione.

Clicca sopra per visualizzare le osservazioni e previsioni meteorologiche.

Per cambiare la mappa : fare clic sui pulsanti verdi con una croce nera per ingrandire, il pulsante verde con un trattino per diminuire, o sulla freccia verde per le mappe adiacenti.


METAR-TAF: